createdAt,value
2022-12-15T00:00:41.682Z,10.47
2022-12-15T00:06:02.819Z,10.30
2022-12-15T00:11:24.157Z,10.83
2022-12-15T00:16:46.222Z,9.27
2022-12-15T00:22:07.320Z,11.13
2022-12-15T00:27:28.041Z,10.70
2022-12-15T00:32:49.260Z,11.10
2022-12-15T00:38:10.587Z,10.43
2022-12-15T00:43:13.088Z,11.03
2022-12-15T00:48:16.304Z,11.17
2022-12-15T00:53:38.855Z,11.03
2022-12-15T00:59:00.253Z,11.00
2022-12-15T01:04:21.560Z,11.30
2022-12-15T01:09:42.651Z,10.57
2022-12-15T01:15:04.120Z,11.13
2022-12-15T01:20:19.835Z,10.73
2022-12-15T01:25:24.529Z,11.47
2022-12-15T01:30:27.967Z,11.40
2022-12-15T01:35:30.377Z,10.27
2022-12-15T01:40:45.428Z,9.43
2022-12-15T01:45:50.318Z,10.30
2022-12-15T01:50:58.220Z,10.77
2022-12-15T01:56:01.326Z,11.17
2022-12-15T02:01:04.224Z,10.80
2022-12-15T02:06:08.257Z,10.80
2022-12-15T02:11:10.731Z,11.27
2022-12-15T02:16:27.949Z,11.37
2022-12-15T02:21:38.716Z,10.53
2022-12-15T02:27:03.980Z,11.33
2022-12-15T02:32:15.371Z,11.23
2022-12-15T02:37:20.834Z,11.87
2022-12-15T02:42:25.574Z,10.73
2022-12-15T02:47:49.943Z,11.90
2022-12-15T02:53:31.663Z,10.73
2022-12-15T02:58:58.935Z,11.57
2022-12-15T03:04:04.589Z,11.77
2022-12-15T03:09:07.087Z,11.53
2022-12-15T03:14:09.509Z,11.30
2022-12-15T03:19:12.022Z,12.37
2022-12-15T03:24:14.907Z,12.10
2022-12-15T03:29:18.239Z,12.17
2022-12-15T03:34:20.764Z,12.57
2022-12-15T03:39:23.220Z,12.47
2022-12-15T03:44:25.909Z,13.67
2022-12-15T03:49:28.327Z,13.40
2022-12-15T03:54:30.929Z,13.23
2022-12-15T03:59:33.355Z,12.23
2022-12-15T04:04:35.731Z,13.63
2022-12-15T04:09:38.336Z,12.77
2022-12-15T04:14:42.660Z,10.50
2022-12-15T04:20:04.076Z,12.83
2022-12-15T04:25:27.515Z,13.27
2022-12-15T04:30:50.354Z,12.57
2022-12-15T04:36:12.187Z,12.70
2022-12-15T04:41:34.278Z,11.67
2022-12-15T04:46:55.471Z,12.17
2022-12-15T04:52:17.431Z,12.60
2022-12-15T04:57:38.609Z,11.17
2022-12-15T05:02:59.922Z,12.97
2022-12-15T05:08:21.135Z,13.23
2022-12-15T05:13:42.176Z,11.57
2022-12-15T05:19:03.303Z,13.33
2022-12-15T05:24:24.425Z,11.87
2022-12-15T05:29:45.554Z,12.13
2022-12-15T05:34:48.321Z,12.43
2022-12-15T05:39:50.750Z,12.17
2022-12-15T05:44:53.498Z,12.23
2022-12-15T05:49:55.933Z,12.93
2022-12-15T05:54:58.294Z,12.40
2022-12-15T06:00:00.719Z,10.83
2022-12-15T06:05:03.694Z,14.10
2022-12-15T06:10:06.951Z,12.17
2022-12-15T06:15:09.730Z,11.87
2022-12-15T06:20:12.423Z,13.03
2022-12-15T06:25:15.129Z,11.77
2022-12-15T06:30:19.169Z,12.23
2022-12-15T06:35:21.551Z,12.83
2022-12-15T06:40:23.983Z,12.67
2022-12-15T06:45:26.612Z,12.37
2022-12-15T06:50:29.209Z,13.13
2022-12-15T06:55:31.612Z,13.23
2022-12-15T07:00:36.785Z,11.97
2022-12-15T07:05:39.217Z,11.67
2022-12-15T07:10:44.228Z,12.67
2022-12-15T07:15:48.903Z,12.70
2022-12-15T07:20:51.289Z,11.83
2022-12-15T07:25:53.712Z,12.60
2022-12-15T07:30:56.221Z,13.70
2022-12-15T07:35:58.898Z,12.43
2022-12-15T07:41:03.742Z,11.70
2022-12-15T07:46:06.705Z,12.70
2022-12-15T07:51:17.131Z,12.43
2022-12-15T07:56:21.944Z,13.27
2022-12-15T08:01:24.972Z,12.23
2022-12-15T08:06:27.518Z,12.83
2022-12-15T08:11:34.587Z,11.23
2022-12-15T08:16:37.693Z,12.37
2022-12-15T08:21:42.147Z,13.03
2022-12-15T08:26:49.962Z,12.87
2022-12-15T08:31:53.738Z,12.23
2022-12-15T08:36:56.235Z,12.90
2022-12-15T08:41:58.625Z,12.47
2022-12-15T08:47:01.132Z,12.20
2022-12-15T08:52:03.523Z,13.00
2022-12-15T08:57:06.323Z,12.67
2022-12-15T09:02:12.289Z,13.07
2022-12-15T09:07:14.997Z,12.57
2022-12-15T09:12:17.643Z,12.77
2022-12-15T09:17:20.211Z,13.07
2022-12-15T09:22:22.817Z,13.27
2022-12-15T09:27:25.262Z,12.53
2022-12-15T09:32:27.853Z,13.57
2022-12-15T09:37:32.587Z,13.53
2022-12-15T09:42:35.573Z,11.97
2022-12-15T09:47:50.097Z,13.20
2022-12-15T09:52:54.830Z,12.27
2022-12-15T09:58:06.007Z,13.53
2022-12-15T10:03:31.277Z,13.83
2022-12-15T10:08:37.100Z,13.53
2022-12-15T10:13:58.058Z,12.97
2022-12-15T10:19:13.419Z,13.03
2022-12-15T10:24:59.887Z,12.57
2022-12-15T10:35:30.144Z,12.77
2022-12-15T10:40:55.203Z,13.50
2022-12-15T10:46:14.424Z,13.23
2022-12-15T10:51:32.626Z,12.17
2022-12-15T10:56:35.908Z,13.80
2022-12-15T11:01:38.579Z,13.27
2022-12-15T11:06:43.302Z,13.00
2022-12-15T11:12:12.063Z,11.93
2022-12-15T11:17:40.784Z,13.87
2022-12-15T11:23:08.752Z,13.17
2022-12-15T11:28:22.257Z,13.10
2022-12-15T11:33:24.699Z,13.27
2022-12-15T11:38:46.290Z,14.10
2022-12-15T11:44:16.064Z,12.00
2022-12-15T11:49:46.332Z,14.23
2022-12-15T11:54:58.337Z,12.97
2022-12-15T12:00:11.875Z,12.67
2022-12-15T12:05:28.846Z,12.07
2022-12-15T12:11:21.217Z,12.03
2022-12-15T12:16:47.058Z,12.27
2022-12-15T12:21:56.335Z,12.20
2022-12-15T12:27:18.806Z,12.23
2022-12-15T12:32:50.827Z,11.60
2022-12-15T12:38:03.944Z,11.93
2022-12-15T12:43:14.112Z,12.60
2022-12-15T12:48:42.390Z,12.37
2022-12-15T12:53:45.109Z,12.77
2022-12-15T12:58:48.545Z,12.10
2022-12-15T13:04:14.295Z,13.43
2022-12-15T13:09:19.510Z,11.40
2022-12-15T13:14:40.070Z,12.30
2022-12-15T13:19:57.495Z,12.47
2022-12-15T13:25:00.523Z,13.00
2022-12-15T13:30:09.083Z,12.63
2022-12-15T13:35:14.646Z,11.73
2022-12-15T13:40:38.146Z,12.73
2022-12-15T13:45:56.008Z,11.43
2022-12-15T13:51:18.623Z,11.13
2022-12-15T13:56:50.741Z,12.10
2022-12-15T14:01:54.374Z,12.23
2022-12-15T14:07:01.202Z,12.17
2022-12-15T14:12:06.004Z,12.33
2022-12-15T14:17:12.219Z,11.80
2022-12-15T14:22:28.512Z,10.63
2022-12-15T14:27:33.504Z,11.47
2022-12-15T14:32:36.632Z,12.23
2022-12-15T14:37:39.786Z,11.50
2022-12-15T14:42:43.990Z,11.00
2022-12-15T14:48:21.507Z,11.77
2022-12-15T14:53:22.146Z,10.57
2022-12-15T14:58:30.775Z,12.20
2022-12-15T15:03:03.980Z,13.07
2022-12-15T15:03:39.382Z,12.50
2022-12-15T15:08:52.945Z,12.47
2022-12-15T15:13:58.416Z,11.80
2022-12-15T15:19:04.460Z,12.00
2022-12-15T15:24:12.997Z,11.23
2022-12-15T15:29:41.182Z,12.07
2022-12-15T15:34:45.129Z,12.20
2022-12-15T15:39:52.776Z,11.93
2022-12-15T15:44:55.151Z,11.73
2022-12-15T15:49:59.842Z,10.90
2022-12-15T15:55:02.277Z,10.40
2022-12-15T16:00:16.281Z,9.97
2022-12-15T16:05:18.953Z,10.30
2022-12-15T16:10:21.685Z,10.13
2022-12-15T16:15:26.426Z,9.40
2022-12-15T16:20:30.317Z,9.53
2022-12-15T16:25:42.415Z,8.53
2022-12-15T16:30:50.598Z,9.93
2022-12-15T16:35:53.937Z,10.73
2022-12-15T16:40:58.374Z,9.20
2022-12-15T16:46:01.508Z,10.07
2022-12-15T16:51:07.785Z,9.00
2022-12-15T16:56:15.994Z,8.80
2022-12-15T17:01:18.709Z,9.50
2022-12-15T17:06:21.180Z,9.03
2022-12-15T17:11:27.310Z,9.50
2022-12-15T17:16:30.547Z,9.33
2022-12-15T17:21:55.182Z,9.77
2022-12-15T17:26:57.809Z,10.10
2022-12-15T17:32:00.319Z,9.03
2022-12-15T17:37:06.317Z,8.17
2022-12-15T17:42:20.317Z,9.73
2022-12-15T17:47:24.281Z,9.03
2022-12-15T17:52:34.837Z,10.10
2022-12-15T17:57:37.386Z,10.47
2022-12-15T18:02:40.011Z,9.07
2022-12-15T18:07:42.902Z,9.70
2022-12-15T18:12:45.492Z,10.03
2022-12-15T18:17:48.286Z,8.93
2022-12-15T18:22:51.691Z,8.77
2022-12-15T18:27:55.604Z,8.63
2022-12-15T18:32:59.510Z,9.20
2022-12-15T18:38:14.038Z,10.67
2022-12-15T18:43:20.758Z,10.57
2022-12-15T18:48:28.922Z,9.83
2022-12-15T18:53:35.062Z,10.00
2022-12-15T18:58:42.413Z,9.97
2022-12-15T19:03:44.944Z,11.03
2022-12-15T19:08:48.810Z,9.63
2022-12-15T19:13:53.988Z,10.70
2022-12-15T19:19:17.415Z,8.43
2022-12-15T19:24:46.169Z,11.20
2022-12-15T19:29:50.749Z,11.03
2022-12-15T19:34:53.159Z,11.33
2022-12-15T19:39:57.869Z,10.67
2022-12-15T19:45:03.889Z,10.53
2022-12-15T19:50:06.741Z,10.40
2022-12-15T19:55:15.807Z,10.60
2022-12-15T20:00:27.418Z,10.73
2022-12-15T20:05:29.945Z,10.53
2022-12-15T20:10:32.866Z,10.20
2022-12-15T20:15:35.383Z,10.67
2022-12-15T20:20:41.874Z,10.77
2022-12-15T20:25:45.198Z,9.80
2022-12-15T20:30:49.404Z,10.77
2022-12-15T20:35:52.205Z,10.87
2022-12-15T20:40:55.544Z,9.70
2022-12-15T20:46:26.632Z,10.90
2022-12-15T20:51:32.493Z,9.67
2022-12-15T20:56:34.995Z,11.30
2022-12-15T21:01:41.605Z,12.10
2022-12-15T21:06:44.621Z,11.87
2022-12-15T21:11:51.797Z,9.63
2022-12-15T21:16:54.403Z,12.70
2022-12-15T21:21:56.969Z,11.80
2022-12-15T21:27:01.584Z,10.43
2022-12-15T21:32:04.059Z,11.47
2022-12-15T21:37:23.221Z,10.57
2022-12-15T21:42:26.615Z,11.40
2022-12-15T21:47:52.107Z,11.43
2022-12-15T21:52:54.930Z,11.00
2022-12-15T21:57:58.227Z,10.73
2022-12-15T22:03:01.165Z,11.87
2022-12-15T22:08:22.216Z,11.33
2022-12-15T22:13:24.837Z,11.33
2022-12-15T22:18:27.348Z,12.33
2022-12-15T22:23:30.079Z,11.90
2022-12-15T22:28:33.877Z,11.93
2022-12-15T22:33:36.697Z,11.20
2022-12-15T22:38:39.124Z,11.60
2022-12-15T22:43:44.063Z,12.10
2022-12-15T22:48:47.719Z,12.50
2022-12-15T22:53:50.273Z,11.63
2022-12-15T22:58:59.914Z,11.17
2022-12-15T23:04:02.774Z,11.93
2022-12-15T23:09:05.379Z,10.90
2022-12-15T23:14:11.459Z,10.50
2022-12-15T23:19:24.043Z,12.33
2022-12-15T23:24:27.348Z,14.87
2022-12-15T23:29:29.834Z,13.37
2022-12-15T23:34:32.266Z,12.70
2022-12-15T23:39:34.697Z,11.60
2022-12-15T23:44:37.469Z,11.43
2022-12-15T23:49:40.054Z,12.20
2022-12-15T23:54:42.429Z,11.47
2022-12-15T23:59:44.907Z,11.23
